PIKE02 EFTP-EFTP
Flight info
| Callsign | PIKE02 |
|---|---|
| Flight time | 1h 6m |
| Altitude | 22000 |
| Route | G03C |
| Aircraft | F35/M-SDGIRUY/C |
Departure
| Time | 2026-04-17 12:47 |
|---|---|
| Airport | Tampere-Pirkkala Airport (EFTP) |
Arrival
| Time | 2026-04-17 13:53 |
|---|---|
| Airport | Tampere-Pirkkala Airport (EFTP) |
| Time | Latitude | Longitude | Altitude | Speed | Heading |
|---|---|---|---|---|---|
| 2026-04-17 12:27 | 61.41673 | 23.63194 | 385 ft | 0 kts | 22° |
| 2026-04-17 12:43 | 61.41703 | 23.63202 | 384 ft | 5 kts | 331° |
| 2026-04-17 12:44 | 61.41727 | 23.63110 | 380 ft | 10 kts | 296° |
| 2026-04-17 12:44 | 61.41744 | 23.63038 | 377 ft | 5 kts | 295° |
| 2026-04-17 12:44 | 61.41765 | 23.62946 | 374 ft | 9 kts | 295° |
| 2026-04-17 12:44 | 61.41790 | 23.62878 | 373 ft | 6 kts | 327° |
| 2026-04-17 12:45 | 61.41831 | 23.62849 | 372 ft | 7 kts | 345° |
| 2026-04-17 12:45 | 61.41862 | 23.62819 | 370 ft | 0 kts | 324° |
| 2026-04-17 12:45 | 61.41865 | 23.62815 | 370 ft | 2 kts | 323° |
| 2026-04-17 12:45 | 61.41876 | 23.62798 | 369 ft | 4 kts | 321° |
| 2026-04-17 12:46 | 61.41892 | 23.62768 | 368 ft | 4 kts | 316° |
| 2026-04-17 12:46 | 61.41922 | 23.62692 | 368 ft | 8 kts | 283° |
| 2026-04-17 12:46 | 61.41911 | 23.62603 | 370 ft | 23 kts | 245° |
| 2026-04-17 12:46 | 61.41543 | 23.61027 | 438 ft | 203 kts | 244° |
| 2026-04-17 12:47 | 61.40771 | 23.57708 | 1008 ft | 290 kts | 246° |
| 2026-04-17 12:47 | 61.39915 | 23.53966 | 2161 ft | 290 kts | 245° |
| 2026-04-17 12:47 | 61.39038 | 23.50164 | 3429 ft | 293 kts | 246° |
| 2026-04-17 12:47 | 61.38531 | 23.46065 | 4562 ft | 297 kts | 273° |
| 2026-04-17 12:48 | 61.39088 | 23.42002 | 5017 ft | 295 kts | 307° |
| 2026-04-17 12:48 | 61.40405 | 23.38786 | 4826 ft | 290 kts | 314° |
| 2026-04-17 12:48 | 61.41736 | 23.35675 | 5426 ft | 290 kts | 314° |
| 2026-04-17 12:48 | 61.43087 | 23.32543 | 6281 ft | 292 kts | 314° |
| 2026-04-17 12:49 | 61.44439 | 23.29334 | 7194 ft | 297 kts | 313° |
| 2026-04-17 12:49 | 61.45795 | 23.26055 | 8188 ft | 298 kts | 313° |
| 2026-04-17 12:49 | 61.47154 | 23.22731 | 9291 ft | 303 kts | 313° |
| 2026-04-17 12:49 | 61.48522 | 23.19351 | 10505 ft | 306 kts | 313° |
| 2026-04-17 12:50 | 61.49914 | 23.15977 | 11559 ft | 310 kts | 313° |
| 2026-04-17 12:50 | 61.51351 | 23.12566 | 12583 ft | 317 kts | 313° |
| 2026-04-17 12:50 | 61.52808 | 23.09118 | 13620 ft | 316 kts | 313° |
| 2026-04-17 12:50 | 61.54275 | 23.05620 | 14698 ft | 322 kts | 313° |
| 2026-04-17 12:51 | 61.55763 | 23.02092 | 15850 ft | 324 kts | 313° |
| 2026-04-17 12:51 | 61.57281 | 22.98521 | 17167 ft | 330 kts | 313° |
| 2026-04-17 12:51 | 61.58827 | 22.94912 | 18655 ft | 336 kts | 314° |
| 2026-04-17 12:51 | 61.60412 | 22.91227 | 20161 ft | 342 kts | 314° |
| 2026-04-17 12:52 | 61.62064 | 22.87495 | 21598 ft | 368 kts | 315° |
| 2026-04-17 12:52 | 61.63824 | 22.83634 | 21753 ft | 359 kts | 315° |
| 2026-04-17 12:52 | 61.65555 | 22.79799 | 21912 ft | 361 kts | 315° |
| 2026-04-17 12:52 | 61.67265 | 22.75976 | 22072 ft | 358 kts | 315° |
| 2026-04-17 12:53 | 61.68986 | 22.72147 | 22256 ft | 361 kts | 315° |
| 2026-04-17 12:53 | 61.70711 | 22.68289 | 22196 ft | 361 kts | 315° |
| 2026-04-17 12:53 | 61.72394 | 22.64504 | 22139 ft | 359 kts | 315° |
| 2026-04-17 12:53 | 61.74107 | 22.60627 | 22181 ft | 360 kts | 314° |
| 2026-04-17 12:54 | 61.75825 | 22.56721 | 22253 ft | 366 kts | 313° |
| 2026-04-17 12:54 | 61.77546 | 22.52788 | 22337 ft | 364 kts | 313° |
| 2026-04-17 12:54 | 61.79259 | 22.48833 | 22323 ft | 365 kts | 313° |
| 2026-04-17 12:54 | 61.80970 | 22.44880 | 22299 ft | 363 kts | 313° |
| 2026-04-17 12:55 | 61.82677 | 22.40934 | 22273 ft | 364 kts | 313° |
| 2026-04-17 12:55 | 61.84394 | 22.36978 | 22263 ft | 365 kts | 313° |
| 2026-04-17 12:55 | 61.86085 | 22.33085 | 22287 ft | 364 kts | 313° |
| 2026-04-17 12:55 | 61.87802 | 22.29128 | 22300 ft | 365 kts | 313° |
| 2026-04-17 12:56 | 61.89515 | 22.25169 | 22329 ft | 364 kts | 313° |
| 2026-04-17 12:56 | 61.91227 | 22.21202 | 22352 ft | 365 kts | 313° |
| 2026-04-17 12:56 | 61.92932 | 22.17233 | 22381 ft | 364 kts | 313° |
| 2026-04-17 12:56 | 61.94664 | 22.13212 | 22366 ft | 366 kts | 313° |
| 2026-04-17 12:57 | 61.96378 | 22.09233 | 22337 ft | 366 kts | 313° |
| 2026-04-17 12:57 | 61.98093 | 22.05256 | 22330 ft | 362 kts | 313° |
| 2026-04-17 12:57 | 61.99821 | 22.01273 | 22320 ft | 368 kts | 312° |
| 2026-04-17 12:57 | 62.01542 | 21.97305 | 22316 ft | 365 kts | 312° |
| 2026-04-17 12:58 | 62.03271 | 21.93315 | 22316 ft | 367 kts | 312° |
| 2026-04-17 12:58 | 62.04995 | 21.89327 | 22300 ft | 365 kts | 312° |
| 2026-04-17 12:58 | 62.06717 | 21.85334 | 22303 ft | 366 kts | 312° |
| 2026-04-17 12:58 | 62.08439 | 21.81334 | 22317 ft | 365 kts | 312° |
| 2026-04-17 12:59 | 62.10139 | 21.77395 | 22326 ft | 365 kts | 312° |
| 2026-04-17 12:59 | 62.11869 | 21.73389 | 22351 ft | 367 kts | 312° |
| 2026-04-17 12:59 | 62.13597 | 21.69383 | 22384 ft | 366 kts | 313° |
| 2026-04-17 12:59 | 62.15356 | 21.65446 | 22390 ft | 367 kts | 314° |
| 2026-04-17 13:00 | 62.17171 | 21.61604 | 22346 ft | 365 kts | 315° |
| 2026-04-17 13:00 | 62.19004 | 21.57841 | 22291 ft | 365 kts | 316° |
| 2026-04-17 13:00 | 62.20843 | 21.54071 | 22252 ft | 365 kts | 316° |
| 2026-04-17 13:00 | 62.22675 | 21.50306 | 22215 ft | 364 kts | 316° |
| 2026-04-17 13:01 | 62.24507 | 21.46532 | 22191 ft | 366 kts | 315° |
| 2026-04-17 13:01 | 62.26340 | 21.42748 | 22166 ft | 365 kts | 315° |
| 2026-04-17 13:01 | 62.28098 | 21.38914 | 22115 ft | 365 kts | 309° |
| 2026-04-17 13:01 | 62.29497 | 21.34360 | 21878 ft | 365 kts | 297° |
| 2026-04-17 13:02 | 62.30355 | 21.29249 | 21399 ft | 363 kts | 283° |
| 2026-04-17 13:02 | 62.30590 | 21.23868 | 20670 ft | 361 kts | 269° |
| 2026-04-17 13:02 | 62.30177 | 21.18573 | 19705 ft | 360 kts | 255° |
| 2026-04-17 13:02 | 62.29132 | 21.13757 | 18810 ft | 356 kts | 239° |
| 2026-04-17 13:03 | 62.27633 | 21.09542 | 17978 ft | 349 kts | 233° |
| 2026-04-17 13:03 | 62.26089 | 21.05434 | 17802 ft | 354 kts | 233° |
| 2026-04-17 13:03 | 62.24552 | 21.01311 | 17612 ft | 355 kts | 234° |
| 2026-04-17 13:03 | 62.23048 | 20.97229 | 17439 ft | 352 kts | 234° |
| 2026-04-17 13:04 | 62.21537 | 20.93085 | 17464 ft | 354 kts | 234° |
| 2026-04-17 13:04 | 62.20031 | 20.88917 | 17486 ft | 353 kts | 235° |
| 2026-04-17 13:04 | 62.18530 | 20.84722 | 17524 ft | 353 kts | 235° |
| 2026-04-17 13:04 | 62.17042 | 20.80530 | 17551 ft | 354 kts | 235° |
| 2026-04-17 13:05 | 62.15552 | 20.76311 | 17385 ft | 354 kts | 235° |
| 2026-04-17 13:05 | 62.14074 | 20.72158 | 16959 ft | 351 kts | 234° |
| 2026-04-17 13:05 | 62.12609 | 20.68073 | 16540 ft | 348 kts | 234° |
| 2026-04-17 13:05 | 62.11131 | 20.64016 | 16152 ft | 337 kts | 226° |
| 2026-04-17 13:06 | 62.09207 | 20.61058 | 16840 ft | 350 kts | 213° |
| 2026-04-17 13:06 | 62.07078 | 20.58448 | 17260 ft | 355 kts | 211° |
| 2026-04-17 13:06 | 62.04909 | 20.55972 | 17293 ft | 355 kts | 210° |
| 2026-04-17 13:06 | 62.02630 | 20.54001 | 17264 ft | 356 kts | 191° |
| 2026-04-17 13:07 | 62.00135 | 20.54224 | 17236 ft | 365 kts | 165° |
| 2026-04-17 13:07 | 61.97890 | 20.56769 | 17225 ft | 374 kts | 138° |
| 2026-04-17 13:07 | 61.96317 | 20.61105 | 17233 ft | 372 kts | 117° |
| 2026-04-17 13:07 | 61.95219 | 20.66108 | 17271 ft | 371 kts | 112° |
| 2026-04-17 13:08 | 61.94266 | 20.71147 | 17290 ft | 373 kts | 110° |
| 2026-04-17 13:08 | 61.93351 | 20.76283 | 17295 ft | 371 kts | 109° |
| 2026-04-17 13:08 | 61.92456 | 20.81451 | 17291 ft | 372 kts | 109° |
| 2026-04-17 13:08 | 61.91578 | 20.86617 | 17289 ft | 372 kts | 106° |
| 2026-04-17 13:09 | 61.91327 | 20.91950 | 17669 ft | 376 kts | 78° |
| 2026-04-17 13:09 | 61.92276 | 20.97687 | 18442 ft | 417 kts | 56° |
| 2026-04-17 13:09 | 61.94184 | 21.02270 | 19103 ft | 419 kts | 33° |
| 2026-04-17 13:09 | 61.96752 | 21.05039 | 19770 ft | 414 kts | 16° |
| 2026-04-17 13:10 | 61.99544 | 21.06764 | 20522 ft | 419 kts | 10° |
| 2026-04-17 13:10 | 62.02388 | 21.07093 | 21192 ft | 416 kts | 349° |
| 2026-04-17 13:10 | 62.05122 | 21.05097 | 21556 ft | 419 kts | 327° |
| 2026-04-17 13:10 | 62.07130 | 21.00770 | 21713 ft | 424 kts | 296° |
| 2026-04-17 13:11 | 62.07449 | 20.94371 | 22855 ft | 468 kts | 261° |
| 2026-04-17 13:11 | 62.06138 | 20.87387 | 23503 ft | 552 kts | 239° |
| 2026-04-17 13:11 | 62.03325 | 20.81502 | 22849 ft | 586 kts | 212° |
| 2026-04-17 13:11 | 61.99649 | 20.77481 | 21493 ft | 600 kts | 206° |
| 2026-04-17 13:12 | 61.95668 | 20.75088 | 21352 ft | 597 kts | 189° |
| 2026-04-17 13:12 | 61.90771 | 20.64361 | 21260 ft | 568 kts | 265° |
| 2026-04-17 13:12 | 61.89931 | 20.56530 | 18740 ft | 526 kts | 232° |
| 2026-04-17 13:13 | 61.86837 | 20.53980 | 16633 ft | 481 kts | 166° |
| 2026-04-17 13:13 | 61.84857 | 20.58467 | 15750 ft | 404 kts | 89° |
| 2026-04-17 13:13 | 61.86171 | 20.61022 | 14652 ft | 230 kts | 317° |
| 2026-04-17 13:13 | 61.86721 | 20.57620 | 14146 ft | 307 kts | 262° |
| 2026-04-17 13:14 | 61.86487 | 20.52005 | 13879 ft | 450 kts | 268° |
| 2026-04-17 13:14 | 61.86199 | 20.44930 | 15657 ft | 541 kts | 263° |
| 2026-04-17 13:14 | 61.85240 | 20.36750 | 16208 ft | 587 kts | 251° |
| 2026-04-17 13:14 | 61.83579 | 20.28797 | 16323 ft | 592 kts | 242° |
| 2026-04-17 13:15 | 61.80670 | 20.23874 | 17601 ft | 506 kts | 193° |
| 2026-04-17 13:15 | 61.77337 | 20.22896 | 16463 ft | 465 kts | 186° |
| 2026-04-17 13:15 | 61.74261 | 20.22049 | 16353 ft | 393 kts | 192° |
| 2026-04-17 13:15 | 61.71630 | 20.21417 | 16286 ft | 393 kts | 191° |
| 2026-04-17 13:16 | 61.69046 | 20.20700 | 16306 ft | 373 kts | 189° |
| 2026-04-17 13:16 | 61.66322 | 20.20046 | 16305 ft | 388 kts | 188° |
| 2026-04-17 13:16 | 61.63704 | 20.19397 | 16281 ft | 375 kts | 188° |
| 2026-04-17 13:16 | 61.61048 | 20.18741 | 16379 ft | 395 kts | 188° |
| 2026-04-17 13:17 | 61.58391 | 20.18102 | 16369 ft | 375 kts | 188° |
| 2026-04-17 13:17 | 61.55868 | 20.17480 | 16315 ft | 370 kts | 188° |
| 2026-04-17 13:17 | 61.53243 | 20.16813 | 16457 ft | 381 kts | 188° |
| 2026-04-17 13:17 | 61.50666 | 20.16145 | 16278 ft | 371 kts | 190° |
| 2026-04-17 13:18 | 61.48054 | 20.15497 | 16295 ft | 392 kts | 187° |
| 2026-04-17 13:18 | 61.45425 | 20.14753 | 16657 ft | 384 kts | 188° |
| 2026-04-17 13:18 | 61.42824 | 20.14135 | 16341 ft | 392 kts | 186° |
| 2026-04-17 13:18 | 61.40172 | 20.13671 | 16328 ft | 380 kts | 188° |
| 2026-04-17 13:19 | 61.37486 | 20.12894 | 16363 ft | 392 kts | 188° |
| 2026-04-17 13:19 | 61.34703 | 20.12261 | 16553 ft | 402 kts | 188° |
| 2026-04-17 13:19 | 61.31969 | 20.11486 | 15876 ft | 411 kts | 188° |
| 2026-04-17 13:19 | 61.28984 | 20.11087 | 15369 ft | 445 kts | 183° |
| 2026-04-17 13:20 | 61.25847 | 20.10922 | 15020 ft | 467 kts | 182° |
| 2026-04-17 13:20 | 61.22527 | 20.10753 | 14660 ft | 486 kts | 182° |
| 2026-04-17 13:20 | 61.19085 | 20.10581 | 14292 ft | 493 kts | 182° |
| 2026-04-17 13:20 | 61.15898 | 20.10726 | 13861 ft | 376 kts | 134° |
| 2026-04-17 13:21 | 61.16389 | 20.13065 | 11500 ft | 216 kts | 343° |
| 2026-04-17 13:21 | 61.17120 | 20.10799 | 11116 ft | 248 kts | 247° |
| 2026-04-17 13:21 | 61.15806 | 20.06521 | 8388 ft | 478 kts | 239° |
| 2026-04-17 13:21 | 61.15466 | 20.00114 | 12066 ft | 442 kts | 320° |
| 2026-04-17 13:22 | 61.17139 | 20.02624 | 11900 ft | 439 kts | 123° |
| 2026-04-17 13:22 | 61.14226 | 20.05237 | 13457 ft | 477 kts | 166° |
| 2026-04-17 13:22 | 61.14440 | 20.08411 | 12988 ft | 251 kts | 359° |
| 2026-04-17 13:22 | 61.14818 | 20.09969 | 7430 ft | 276 kts | 119° |
| 2026-04-17 13:23 | 61.13884 | 20.10555 | 9506 ft | 133 kts | 274° |
| 2026-04-17 13:23 | 61.13605 | 20.08000 | 9034 ft | 236 kts | 298° |
| 2026-04-17 13:23 | 61.14651 | 20.07869 | 9293 ft | 214 kts | 79° |
| 2026-04-17 13:23 | 61.13736 | 20.10110 | 8995 ft | 220 kts | 127° |
| 2026-04-17 13:24 | 61.14368 | 20.11770 | 7250 ft | 225 kts | 313° |
| 2026-04-17 13:24 | 61.14248 | 20.09923 | 6418 ft | 264 kts | 221° |
| 2026-04-17 13:24 | 61.12227 | 20.06260 | 2872 ft | 526 kts | 220° |
| 2026-04-17 13:24 | 61.09025 | 20.02066 | 5100 ft | 523 kts | 248° |
| 2026-04-17 13:25 | 61.10356 | 19.95887 | 8330 ft | 527 kts | 327° |
| 2026-04-17 13:25 | 61.13865 | 19.94432 | 11091 ft | 533 kts | 28° |
| 2026-04-17 13:25 | 61.16107 | 19.96289 | 9110 ft | 264 kts | 271° |
| 2026-04-17 13:25 | 61.15070 | 19.95444 | 8212 ft | 235 kts | 109° |
| 2026-04-17 13:26 | 61.15915 | 19.97192 | 7466 ft | 262 kts | 356° |
| 2026-04-17 13:26 | 61.17815 | 19.95082 | 6583 ft | 404 kts | 276° |
| 2026-04-17 13:26 | 61.15733 | 19.93828 | 4787 ft | 471 kts | 120° |
| 2026-04-17 13:26 | 61.15682 | 20.00611 | 6474 ft | 529 kts | 44° |
| 2026-04-17 13:27 | 61.18880 | 19.99848 | 8934 ft | 521 kts | 314° |
| 2026-04-17 13:27 | 61.21369 | 19.94550 | 12861 ft | 505 kts | 322° |
| 2026-04-17 13:27 | 61.23645 | 19.95917 | 9133 ft | 422 kts | 83° |
| 2026-04-17 13:27 | 61.21872 | 19.98855 | 6929 ft | 364 kts | 203° |
| 2026-04-17 13:28 | 61.20282 | 19.95712 | 4909 ft | 320 kts | 279° |
| 2026-04-17 13:28 | 61.19284 | 19.94624 | 3943 ft | 235 kts | 140° |
| 2026-04-17 13:28 | 61.19777 | 19.96236 | 3106 ft | 220 kts | 298° |
| 2026-04-17 13:28 | 61.20750 | 19.95990 | 5367 ft | 153 kts | 21° |
| 2026-04-17 13:29 | 61.22080 | 19.96948 | 7180 ft | 277 kts | 20° |
| 2026-04-17 13:29 | 61.22216 | 19.95415 | 4865 ft | 243 kts | 165° |
| 2026-04-17 13:29 | 61.19648 | 19.96022 | 3554 ft | 482 kts | 186° |
| 2026-04-17 13:29 | 61.16338 | 19.93623 | 6804 ft | 531 kts | 211° |
| 2026-04-17 13:30 | 61.13226 | 19.89250 | 11909 ft | 548 kts | 216° |
| 2026-04-17 13:30 | 61.10016 | 19.85458 | 17750 ft | 529 kts | 202° |
| 2026-04-17 13:30 | 61.06413 | 19.82667 | 19505 ft | 549 kts | 197° |
| 2026-04-17 13:30 | 61.05418 | 19.78882 | 9298 ft | 126 kts | 45° |
| 2026-04-17 13:31 | 61.03539 | 19.83789 | 2266 ft | 494 kts | 141° |
| 2026-04-17 13:31 | 61.01077 | 19.83355 | 5253 ft | 447 kts | 255° |
| 2026-04-17 13:31 | 61.02651 | 19.80639 | 9319 ft | 391 kts | 10° |
| 2026-04-17 13:31 | 61.02703 | 19.83192 | 11631 ft | 246 kts | 172° |
| 2026-04-17 13:32 | 61.02278 | 19.85896 | 9199 ft | 326 kts | 38° |
| 2026-04-17 13:32 | 61.03121 | 19.84639 | 9709 ft | 225 kts | 200° |
| 2026-04-17 13:32 | 61.02446 | 19.86423 | 8095 ft | 225 kts | 22° |
| 2026-04-17 13:32 | 61.02657 | 19.90117 | 7867 ft | 371 kts | 106° |
| 2026-04-17 13:33 | 61.01108 | 19.95914 | 7431 ft | 499 kts | 140° |
| 2026-04-17 13:33 | 60.97966 | 19.97977 | 8302 ft | 461 kts | 168° |
| 2026-04-17 13:33 | 60.95577 | 20.02433 | 11188 ft | 537 kts | 88° |
| 2026-04-17 13:33 | 60.97654 | 20.08357 | 15686 ft | 545 kts | 35° |
| 2026-04-17 13:34 | 61.00939 | 20.13119 | 18015 ft | 590 kts | 30° |
| 2026-04-17 13:34 | 61.04742 | 20.15773 | 19769 ft | 578 kts | 5° |
| 2026-04-17 13:34 | 61.08753 | 20.15509 | 20962 ft | 574 kts | 352° |
| 2026-04-17 13:34 | 61.12668 | 20.14738 | 22616 ft | 569 kts | 359° |
| 2026-04-17 13:35 | 61.16265 | 20.17110 | 24642 ft | 551 kts | 48° |
| 2026-04-17 13:35 | 61.17871 | 20.24527 | 23973 ft | 590 kts | 78° |
| 2026-04-17 13:35 | 61.18813 | 20.32946 | 21685 ft | 608 kts | 74° |
| 2026-04-17 13:35 | 61.19953 | 20.41477 | 19677 ft | 612 kts | 73° |
| 2026-04-17 13:36 | 61.21251 | 20.49631 | 17944 ft | 586 kts | 63° |
| 2026-04-17 13:36 | 61.23491 | 20.56580 | 17812 ft | 571 kts | 53° |
| 2026-04-17 13:36 | 61.25648 | 20.62836 | 17804 ft | 499 kts | 53° |
| 2026-04-17 13:36 | 61.27505 | 20.68361 | 17777 ft | 436 kts | 53° |
| 2026-04-17 13:37 | 61.29125 | 20.73274 | 17770 ft | 391 kts | 54° |
| 2026-04-17 13:37 | 61.30666 | 20.77989 | 17777 ft | 392 kts | 54° |
| 2026-04-17 13:37 | 61.32407 | 20.82288 | 17725 ft | 389 kts | 36° |
| 2026-04-17 13:37 | 61.34622 | 20.85454 | 17713 ft | 387 kts | 38° |
| 2026-04-17 13:38 | 61.36321 | 20.89810 | 17659 ft | 393 kts | 62° |
| 2026-04-17 13:38 | 61.37038 | 20.95281 | 17647 ft | 396 kts | 87° |
| 2026-04-17 13:38 | 61.36637 | 21.00954 | 17651 ft | 398 kts | 111° |
| 2026-04-17 13:38 | 61.35498 | 21.06220 | 17713 ft | 399 kts | 114° |
| 2026-04-17 13:39 | 61.34526 | 21.11617 | 17735 ft | 398 kts | 106° |
| 2026-04-17 13:39 | 61.33855 | 21.17216 | 17753 ft | 399 kts | 101° |
| 2026-04-17 13:39 | 61.33406 | 21.22913 | 17759 ft | 398 kts | 96° |
| 2026-04-17 13:39 | 61.33107 | 21.28643 | 17766 ft | 398 kts | 94° |
| 2026-04-17 13:40 | 61.32872 | 21.34390 | 17768 ft | 398 kts | 94° |
| 2026-04-17 13:40 | 61.32669 | 21.40065 | 17772 ft | 398 kts | 92° |
| 2026-04-17 13:40 | 61.32662 | 21.45819 | 17762 ft | 394 kts | 85° |
| 2026-04-17 13:40 | 61.32820 | 21.51473 | 17757 ft | 382 kts | 86° |
| 2026-04-17 13:41 | 61.32861 | 21.56894 | 17750 ft | 375 kts | 88° |
| 2026-04-17 13:41 | 61.32896 | 21.62268 | 17751 ft | 371 kts | 86° |
| 2026-04-17 13:41 | 61.32976 | 21.67637 | 17752 ft | 369 kts | 86° |
| 2026-04-17 13:41 | 61.33022 | 21.73008 | 17670 ft | 373 kts | 88° |
| 2026-04-17 13:42 | 61.33058 | 21.78358 | 17317 ft | 370 kts | 86° |
| 2026-04-17 13:42 | 61.33135 | 21.83676 | 16600 ft | 363 kts | 86° |
| 2026-04-17 13:42 | 61.33180 | 21.88907 | 15910 ft | 360 kts | 88° |
| 2026-04-17 13:42 | 61.33266 | 21.94101 | 15230 ft | 356 kts | 85° |
| 2026-04-17 13:43 | 61.33325 | 21.99228 | 14565 ft | 353 kts | 88° |
| 2026-04-17 13:43 | 61.33324 | 22.04327 | 13890 ft | 350 kts | 89° |
| 2026-04-17 13:43 | 61.33297 | 22.09297 | 13180 ft | 345 kts | 89° |
| 2026-04-17 13:43 | 61.33251 | 22.14255 | 12480 ft | 339 kts | 89° |
| 2026-04-17 13:44 | 61.33194 | 22.19148 | 11805 ft | 336 kts | 89° |
| 2026-04-17 13:44 | 61.33133 | 22.23973 | 11163 ft | 330 kts | 88° |
| 2026-04-17 13:44 | 61.33115 | 22.28707 | 10515 ft | 325 kts | 86° |
| 2026-04-17 13:44 | 61.33115 | 22.33409 | 9850 ft | 323 kts | 88° |
| 2026-04-17 13:45 | 61.33079 | 22.38031 | 9159 ft | 317 kts | 88° |
| 2026-04-17 13:45 | 61.33054 | 22.42612 | 8477 ft | 314 kts | 88° |
| 2026-04-17 13:45 | 61.33064 | 22.47128 | 7817 ft | 309 kts | 87° |
| 2026-04-17 13:45 | 61.33083 | 22.51505 | 7256 ft | 304 kts | 87° |
| 2026-04-17 13:46 | 61.33096 | 22.55915 | 6771 ft | 304 kts | 88° |
| 2026-04-17 13:46 | 61.33107 | 22.60293 | 6267 ft | 300 kts | 87° |
| 2026-04-17 13:46 | 61.33114 | 22.64630 | 5761 ft | 299 kts | 87° |
| 2026-04-17 13:46 | 61.33126 | 22.68956 | 5255 ft | 315 kts | 88° |
| 2026-04-17 13:47 | 61.33144 | 22.73682 | 4738 ft | 318 kts | 88° |
| 2026-04-17 13:47 | 61.33158 | 22.78262 | 4216 ft | 314 kts | 87° |
| 2026-04-17 13:47 | 61.33205 | 22.82799 | 3715 ft | 313 kts | 86° |
| 2026-04-17 13:47 | 61.33273 | 22.87299 | 3225 ft | 310 kts | 85° |
| 2026-04-17 13:48 | 61.33345 | 22.91769 | 2758 ft | 307 kts | 86° |
| 2026-04-17 13:48 | 61.33419 | 22.96133 | 3055 ft | 307 kts | 85° |
| 2026-04-17 13:48 | 61.33479 | 23.00593 | 3022 ft | 308 kts | 87° |
| 2026-04-17 13:48 | 61.33482 | 23.05065 | 2996 ft | 310 kts | 88° |
| 2026-04-17 13:49 | 61.33462 | 23.09535 | 2576 ft | 299 kts | 89° |
| 2026-04-17 13:49 | 61.33442 | 23.13617 | 2654 ft | 264 kts | 87° |
| 2026-04-17 13:49 | 61.33468 | 23.17287 | 2683 ft | 251 kts | 86° |
| 2026-04-17 13:49 | 61.33523 | 23.20880 | 2722 ft | 245 kts | 86° |
| 2026-04-17 13:50 | 61.33592 | 23.24453 | 2726 ft | 248 kts | 84° |
| 2026-04-17 13:50 | 61.33894 | 23.27875 | 2696 ft | 240 kts | 68° |
| 2026-04-17 13:50 | 61.34565 | 23.31083 | 2688 ft | 238 kts | 62° |
| 2026-04-17 13:50 | 61.35311 | 23.34223 | 2578 ft | 242 kts | 61° |
| 2026-04-17 13:51 | 61.36023 | 23.37260 | 2398 ft | 223 kts | 62° |
| 2026-04-17 13:51 | 61.36670 | 23.40060 | 2171 ft | 203 kts | 61° |
| 2026-04-17 13:51 | 61.37251 | 23.42558 | 1900 ft | 178 kts | 61° |
| 2026-04-17 13:51 | 61.37798 | 23.44892 | 1669 ft | 174 kts | 62° |
| 2026-04-17 13:52 | 61.38341 | 23.47227 | 1592 ft | 177 kts | 62° |
| 2026-04-17 13:52 | 61.38887 | 23.49517 | 1408 ft | 174 kts | 62° |
| 2026-04-17 13:52 | 61.39428 | 23.51847 | 1177 ft | 179 kts | 62° |
| 2026-04-17 13:52 | 61.39958 | 23.54124 | 916 ft | 171 kts | 61° |
| 2026-04-17 13:53 | 61.40477 | 23.56387 | 640 ft | 176 kts | 65° |
| 2026-04-17 13:53 | 61.41003 | 23.58643 | 417 ft | 165 kts | 64° |
| 2026-04-17 13:53 | 61.41414 | 23.60443 | 393 ft | 90 kts | 65° |
| 2026-04-17 13:53 | 61.41597 | 23.61239 | 387 ft | 48 kts | 64° |
| 2026-04-17 13:54 | 61.41607 | 23.62062 | 373 ft | 29 kts | 100° |
| 2026-04-17 13:54 | 61.41573 | 23.62448 | 377 ft | 24 kts | 99° |
| 2026-04-17 13:55 | 61.41600 | 23.62777 | 382 ft | 12 kts | 29° |
| 2026-04-17 13:55 | 61.41611 | 23.62914 | 382 ft | 10 kts | 91° |
| 2026-04-17 13:55 | 61.41616 | 23.63142 | 385 ft | 6 kts | 25° |
| 2026-04-17 13:56 | 61.41629 | 23.63155 | 385 ft | 0 kts | 24° |